avis per tempestes more information blitzortung!


avis per Pluja more information rain snow radar


Visita la nostra xarxa de llocs de meteo:

Template documentation
and downloads

And another site



Rain From: 17-08-2018 13:00 Until: 22:59 warning for: Rain Level: Orange info button
Thunderstorms From: 17-08-2018 12:00 Until: 18-08-2018 08:59 warning for: Thunderstorms Level: Yellow info button

Pagina Historial Weather Underground text

Diari Resum May 13, 2017 Unitats:  Imperial    Mètric   Tant
« Previous Dia
SegĂźent Dia »
Diari Setmana Mensual Anual Personalitzada
  Maxima: Minima: Media:
Temperatura: TemperatureC °F 13.3 °F 21.6 °F
Punt de rosada: DewpointC °F 5.8 °F 8.2 °F
Humitat: Humidity % 28 % 44 %
Wind Speed: WindSpeedKMH mph 0.0 mph 9.6 mph
RĂ fegues de vent: WindSpeedGustKMH mph - -
Vent:- - WSW
Pression baro: PressurehPa in 1010.7 in -
Precipitacions: 0.0 in    
Historical Graphs
 
 
Dades de taula per May 13, 2017
Temps Temperatura Punt de rosada Pression baro Vent Wind Speed RĂ fegues de vent Humitat Rainfall Rate (Hourly)
TemperatureC °F DewpointC °F PressurehPa in Calm     Humidity % HourlyPrecipMM in
00:04 16.0 °F 9.9 °F 1010.7 in WSW 11.1 mph 11.1 mph 67 % 0.0 in
00:05 14.6 °F 9.0 °F 1010.7 in Calm   1.6 mph 69 % 0.0 in
00:09 16.0 °F 10.1 °F 1010.7 in SW 5.6 mph 5.6 mph 68 % 0.0 in
00:14 15.8 °F 9.9 °F 1010.7 in SSW 9.3 mph 9.3 mph 68 % 0.0 in
00:15 14.6 °F 8.8 °F 1010.7 in West 1.6 mph 3.2 mph 68 % 0.0 in
00:25 14.6 °F 8.8 °F 1011.7 in West 1.6 mph 3.2 mph 68 % 0.0 in
00:35 14.6 °F 8.8 °F 1011.7 in WNW 1.6 mph 1.6 mph 68 % 0.0 in
00:45 14.7 °F 8.8 °F 1011.7 in Calm   3.2 mph 68 % 0.0 in
00:55 14.5 °F 8.7 °F 1011.7 in SW 1.6 mph 3.2 mph 68 % 0.0 in
01:05 14.2 °F 8.6 °F 1011.7 in Calm   3.2 mph 69 % 0.0 in
01:15 13.6 °F 8.0 °F 1011.7 in SW 1.6 mph 4.8 mph 69 % 0.0 in
01:25 13.6 °F 8.2 °F 1011.7 in Calm     70 % 0.0 in
01:35 13.5 °F 7.9 °F 1011.7 in SW 4.8 mph 4.8 mph 69 % 0.0 in
01:45 13.3 °F 8.2 °F 1011.7 in SW 3.2 mph 4.8 mph 71 % 0.0 in
01:55 13.5 °F 8.3 °F 1011.7 in SW 3.2 mph 4.8 mph 71 % 0.0 in
02:05 14.3 °F 9.3 °F 1011.7 in WSW 3.2 mph 4.8 mph 72 % 0.0 in
02:15 14.4 °F 9.4 °F 1011.7 in WSW 3.2 mph 3.2 mph 72 % 0.0 in
02:25 14.7 °F 9.5 °F 1011.7 in SW 1.6 mph 4.8 mph 71 % 0.0 in
02:35 15.1 °F 9.9 °F 1012.8 in Calm   1.6 mph 71 % 0.0 in
02:45 15.6 °F 10.3 °F 1012.8 in SW 1.6 mph 4.8 mph 71 % 0.0 in
02:55 16.1 °F 10.6 °F 1012.8 in South 1.6 mph 3.2 mph 70 % 0.0 in
03:05 16.0 °F 10.3 °F 1012.8 in ESE 4.8 mph 6.4 mph 69 % 0.0 in
03:25 17.4 °F 11.2 °F 1012.8 in SE 1.6 mph 4.8 mph 67 % 0.0 in
03:35 17.9 °F 11.4 °F 1012.8 in SSE 1.6 mph 3.2 mph 66 % 0.0 in
03:45 18.2 °F 11.5 °F 1012.8 in SW 1.6 mph 3.2 mph 65 % 0.0 in
03:55 18.4 °F 11.4 °F 1013.8 in WSW 3.2 mph 4.8 mph 64 % 0.0 in
04:05 18.3 °F 11.1 °F 1013.8 in WSW 3.2 mph 8.0 mph 63 % 0.0 in
04:15 18.3 °F 10.9 °F 1013.8 in WSW 4.8 mph 6.4 mph 62 % 0.0 in
04:25 18.8 °F 11.4 °F 1013.8 in WSW 3.2 mph 4.8 mph 62 % 0.0 in
04:35 19.0 °F 11.1 °F 1013.8 in WSW 4.8 mph 9.7 mph 60 % 0.0 in
04:45 19.2 °F 11.0 °F 1013.8 in WSW 8.0 mph 9.7 mph 59 % 0.0 in
04:55 19.8 °F 11.3 °F 1013.8 in West 4.8 mph 4.8 mph 58 % 0.0 in
05:05 19.8 °F 11.3 °F 1013.8 in West 8.0 mph 9.7 mph 58 % 0.0 in
05:15 20.1 °F 11.1 °F 1013.8 in West 3.2 mph 6.4 mph 56 % 0.0 in
10:21 20.4 °F 11.1 °F 1014.8 in West 8.7 mph 8.7 mph 55 % 0.0 in
10:26 20.6 °F 11.2 °F 1013.8 in WSW 7.4 mph 7.4 mph 55 % 0.0 in
10:31 20.8 °F 11.2 °F 1013.8 in SW 5.6 mph 5.6 mph 54 % 0.0 in
10:36 21.3 °F 11.3 °F 1013.8 in WSW 9.3 mph 9.3 mph 53 % 0.0 in
10:41 21.4 °F 11.4 °F 1014.8 in WSW 9.3 mph 9.3 mph 53 % 0.0 in
10:46 21.6 °F 11.6 °F 1014.8 in WSW 14.8 mph 14.8 mph 53 % 0.0 in
10:51 21.8 °F 11.5 °F 1014.8 in North 14.8 mph 14.8 mph 52 % 0.0 in
10:56 22.3 °F 11.9 °F 1014.8 in WSW 7.4 mph 7.4 mph 52 % 0.0 in
11:01 22.0 °F 11.4 °F 1014.8 in WSW 9.3 mph 9.3 mph 51 % 0.0 in
11:02 22.1 °F 11.5 °F 1014.8 in WSW 7.4 mph 7.4 mph 51 % 0.0 in
11:07 22.2 °F 11.6 °F 1014.8 in SW 7.4 mph 7.4 mph 51 % 0.0 in
11:12 22.5 °F 11.6 °F 1014.8 in WSW 13.7 mph 13.7 mph 50 % 0.0 in
11:17 22.3 °F 11.1 °F 1014.8 in SW 6.4 mph 6.4 mph 49 % 0.0 in
11:22 22.4 °F 11.2 °F 1014.8 in West 9.3 mph 9.3 mph 49 % 0.0 in
11:27 22.5 °F 11.2 °F 1014.8 in West 9.3 mph 9.3 mph 49 % 0.0 in
11:32 22.9 °F 11.6 °F 1014.8 in West 9.3 mph 9.3 mph 49 % 0.0 in
11:37 22.8 °F 11.2 °F 1014.8 in WNW 14.8 mph 14.8 mph 48 % 0.0 in
11:42 22.9 °F 11.3 °F 1014.8 in WSW 13.0 mph 13.0 mph 48 % 0.0 in
11:47 23.2 °F 11.3 °F 1014.8 in West 9.3 mph 9.3 mph 47 % 0.0 in
11:52 23.5 °F 11.6 °F 1014.8 in SSW 13.0 mph 13.0 mph 47 % 0.0 in
11:57 23.5 °F 11.2 °F 1014.8 in WSW 11.1 mph 11.1 mph 46 % 0.0 in
12:02 23.8 °F 11.5 °F 1014.8 in WSW 5.6 mph 5.6 mph 46 % 0.0 in
12:07 24.0 °F 11.3 °F 1014.8 in SW 14.8 mph 14.8 mph 45 % 0.0 in
12:12 23.7 °F 11.1 °F 1014.8 in SW 11.1 mph 11.1 mph 45 % 0.0 in
12:17 23.4 °F 10.1 °F 1014.8 in North 9.3 mph 9.3 mph 43 % 0.0 in
12:22 23.5 °F 10.2 °F 1014.8 in West 9.3 mph 9.3 mph 43 % 0.0 in
12:27 24.2 °F 10.8 °F 1014.8 in West 5.6 mph 5.6 mph 43 % 0.0 in
12:32 24.2 °F 10.8 °F 1014.8 in SW 9.3 mph 9.3 mph 43 % 0.0 in
12:37 24.7 °F 10.9 °F 1014.8 in North 18.5 mph 18.5 mph 42 % 0.0 in
12:42 24.5 °F 10.7 °F 1014.8 in West 13.0 mph 13.0 mph 42 % 0.0 in
12:47 24.6 °F 10.4 °F 1014.8 in SW 11.1 mph 11.1 mph 41 % 0.0 in
12:52 25.0 °F 10.1 °F 1014.8 in SW 7.4 mph 7.4 mph 39 % 0.0 in
12:57 24.9 °F 10.0 °F 1014.8 in SW 7.4 mph 7.4 mph 39 % 0.0 in
13:02 25.2 °F 9.9 °F 1014.8 in WNW 9.7 mph 9.7 mph 38 % 0.0 in
13:07 24.9 °F 9.6 °F 1014.8 in SW 9.3 mph 9.3 mph 38 % 0.0 in
13:12 25.2 °F 9.4 °F 1014.8 in WSW 15.6 mph 15.6 mph 37 % 0.0 in
13:17 25.0 °F 8.4 °F 1014.8 in West 13.0 mph 13.0 mph 35 % 0.0 in
13:22 24.6 °F 8.1 °F 1014.8 in SSW 9.3 mph 9.3 mph 35 % 0.0 in
13:27 24.9 °F 7.9 °F 1015.8 in WNW 11.1 mph 12.6 mph 34 % 0.0 in
13:32 25.1 °F 7.7 °F 1015.8 in WSW 17.5 mph 17.5 mph 33 % 0.0 in
13:37 25.1 °F 6.8 °F 1015.8 in NNW 16.7 mph 16.7 mph 31 % 0.0 in
13:42 25.0 °F 6.7 °F 1014.8 in WNW 9.3 mph 9.3 mph 31 % 0.0 in
13:47 25.1 °F 6.8 °F 1014.8 in WNW 7.4 mph 7.4 mph 31 % 0.0 in
13:52 25.5 °F 7.1 °F 1014.8 in WSW 11.1 mph 11.1 mph 31 % 0.0 in
13:57 25.2 °F 6.4 °F 1014.8 in West 16.7 mph 16.7 mph 30 % 0.0 in
14:02 25.2 °F 6.4 °F 1014.8 in NNW 11.1 mph 11.1 mph 30 % 0.0 in
14:07 25.4 °F 6.6 °F 1014.8 in NW 10.8 mph 10.8 mph 30 % 0.0 in
14:12 25.8 °F 7.4 °F 1015.8 in WNW 11.1 mph 11.1 mph 31 % 0.0 in
14:17 25.5 °F 6.7 °F 1015.8 in West 14.8 mph 14.8 mph 30 % 0.0 in
14:22 25.5 °F 6.7 °F 1015.8 in SW 13.0 mph 13.0 mph 30 % 0.0 in
14:27 25.7 °F 6.8 °F 1014.8 in NW 13.0 mph 13.0 mph 30 % 0.0 in
14:32 25.7 °F 6.8 °F 1014.8 in WSW 13.0 mph 13.0 mph 30 % 0.0 in
14:37 25.4 °F 6.6 °F 1014.8 in WSW 13.0 mph 13.0 mph 30 % 0.0 in
14:42 25.2 °F 6.4 °F 1015.8 in SW 11.1 mph 11.1 mph 30 % 0.0 in
14:47 25.0 °F 6.2 °F 1015.8 in West 7.9 mph 7.9 mph 30 % 0.0 in
14:52 24.7 °F 5.9 °F 1015.8 in WSW 9.3 mph 9.3 mph 30 % 0.0 in
14:57 25.1 °F 5.8 °F 1015.8 in NW 16.7 mph 16.7 mph 29 % 0.0 in
14:58 25.1 °F 5.8 °F 1015.8 in WSW 16.7 mph 16.7 mph 29 % 0.0 in
15:03 25.3 °F 6.0 °F 1015.8 in WSW 5.8 mph 7.2 mph 29 % 0.0 in
15:08 25.8 °F 6.9 °F 1015.8 in SSE 5.8 mph 5.8 mph 30 % 0.0 in
15:09 26.0 °F 7.1 °F 1015.8 in West 11.9 mph 11.9 mph 30 % 0.0 in
15:14 26.1 °F 7.2 °F 1014.8 in WNW 13.0 mph 13.0 mph 30 % 0.0 in
15:19 26.0 °F 7.1 °F 1014.8 in West 9.3 mph 9.3 mph 30 % 0.0 in
15:24 26.1 °F 7.2 °F 1014.8 in SW 9.3 mph 9.3 mph 30 % 0.0 in
15:29 25.9 °F 7.0 °F 1015.8 in WNW 11.1 mph 11.1 mph 30 % 0.0 in
15:34 26.4 °F 6.9 °F 1015.8 in WNW 7.4 mph 7.4 mph 29 % 0.0 in
15:39 26.4 °F 6.9 °F 1015.8 in West 13.0 mph 13.0 mph 29 % 0.0 in
15:44 26.0 °F 6.1 °F 1015.8 in West 15.6 mph 15.6 mph 28 % 0.0 in
15:49 26.2 °F 6.8 °F 1015.8 in SW 9.7 mph 9.7 mph 29 % 0.0 in
15:54 26.5 °F 7.0 °F 1015.8 in WSW 10.3 mph 10.3 mph 29 % 0.0 in
15:59 26.3 °F 6.8 °F 1015.8 in WSW 14.8 mph 14.8 mph 29 % 0.0 in
16:04 26.4 °F 6.9 °F 1015.8 in WSW 7.4 mph 7.4 mph 29 % 0.0 in
16:09 26.5 °F 7.0 °F 1015.8 in WSW 13.0 mph 13.0 mph 29 % 0.0 in
16:14 26.2 °F 6.2 °F 1014.8 in WNW 12.6 mph 12.6 mph 28 % 0.0 in
16:19 26.0 °F 6.1 °F 1014.8 in West 7.4 mph 7.4 mph 28 % 0.0 in
16:24 26.2 °F 6.2 °F 1014.8 in WNW 15.1 mph 15.1 mph 28 % 0.0 in
16:29 26.1 °F 6.2 °F 1014.8 in SW 7.4 mph 7.4 mph 28 % 0.0 in
16:34 26.1 °F 6.2 °F 1014.8 in SW 9.3 mph 9.3 mph 28 % 0.0 in
16:39 26.3 °F 6.3 °F 1014.8 in West 9.3 mph 9.3 mph 28 % 0.0 in
16:44 26.4 °F 6.9 °F 1014.8 in SW 9.3 mph 9.3 mph 29 % 0.0 in
16:49 26.4 °F 6.9 °F 1014.8 in NW 9.3 mph 9.3 mph 29 % 0.0 in
16:54 26.1 °F 6.2 °F 1014.8 in WSW 13.0 mph 13.0 mph 28 % 0.0 in
16:59 26.4 °F 6.9 °F 1014.8 in West 9.3 mph 9.3 mph 29 % 0.0 in
17:04 26.7 °F 7.2 °F 1014.8 in WSW 7.4 mph 7.4 mph 29 % 0.0 in
17:09 26.6 °F 6.6 °F 1014.8 in WNW 18.5 mph 18.5 mph 28 % 0.0 in
17:14 26.5 °F 6.5 °F 1014.8 in WSW 6.9 mph 6.9 mph 28 % 0.0 in
17:19 26.5 °F 6.5 °F 1014.8 in West 14.8 mph 14.8 mph 28 % 0.0 in
17:24 26.5 °F 7.0 °F 1014.8 in West 11.1 mph 11.1 mph 29 % 0.0 in
17:29 26.3 °F 6.3 °F 1014.8 in South 13.0 mph 13.0 mph 28 % 0.0 in
17:34 26.4 °F 6.9 °F 1014.8 in WNW 9.3 mph 9.3 mph 29 % 0.0 in
17:39 26.0 °F 6.6 °F 1014.8 in West 9.3 mph 9.3 mph 29 % 0.0 in
17:40 26.0 °F 6.6 °F 1014.8 in SW 11.9 mph 11.9 mph 29 % 0.0 in
17:45 25.8 °F 6.4 °F 1014.8 in WSW 13.7 mph 13.7 mph 29 % 0.0 in
17:50 25.3 °F 6.4 °F 1014.8 in SW 9.5 mph 9.5 mph 30 % 0.0 in
17:55 25.0 °F 6.2 °F 1014.8 in SW 9.3 mph 9.3 mph 30 % 0.0 in
18:00 24.6 °F 6.3 °F 1014.8 in SSW 9.3 mph 9.3 mph 31 % 0.0 in
18:05 24.3 °F 6.6 °F 1014.8 in WSW 11.1 mph 11.1 mph 32 % 0.0 in
18:10 24.7 °F 6.9 °F 1014.8 in SW 11.1 mph 11.1 mph 32 % 0.0 in
18:15 24.3 °F 7.0 °F 1014.8 in SSW 18.5 mph 18.5 mph 33 % 0.0 in
18:20 23.9 °F 6.7 °F 1014.8 in SW 9.3 mph 9.3 mph 33 % 0.0 in
18:25 23.8 °F 7.0 °F 1015.8 in SSW 10.3 mph 10.3 mph 34 % 0.0 in
18:30 23.8 °F 7.0 °F 1015.8 in South 11.1 mph 11.1 mph 34 % 0.0 in
18:35 23.8 °F 7.0 °F 1015.8 in West 13.7 mph 13.7 mph 34 % 0.0 in
18:40 23.8 °F 7.4 °F 1014.8 in SW 16.7 mph 16.7 mph 35 % 0.0 in
18:45 24.0 °F 8.0 °F 1014.8 in SSW 7.9 mph 7.9 mph 36 % 0.0 in
18:50 23.9 °F 7.9 °F 1014.8 in SW 14.8 mph 14.8 mph 36 % 0.0 in
18:55 23.7 °F 7.7 °F 1015.8 in SW 18.5 mph 18.5 mph 36 % 0.0 in
19:00 23.5 °F 7.6 °F 1015.8 in SSW 20.4 mph 20.4 mph 36 % 0.0 in
19:05 23.4 °F 7.5 °F 1015.8 in SW 11.1 mph 11.1 mph 36 % 0.0 in
19:10 23.4 °F 7.5 °F 1015.8 in SW 13.0 mph 13.0 mph 36 % 0.0 in
19:12 23.4 °F 7.5 °F 1015.8 in SSW 16.7 mph 16.7 mph 36 % 0.0 in
19:17 23.3 °F 7.4 °F 1015.8 in SW 20.4 mph 20.4 mph 36 % 0.0 in
19:22 23.1 °F 7.2 °F 1015.8 in SW 24.1 mph 24.1 mph 36 % 0.0 in
19:27 23.1 °F 7.2 °F 1015.8 in SSW 13.0 mph 13.0 mph 36 % 0.0 in
19:32 22.8 °F 7.3 °F 1015.8 in SSW 22.2 mph 22.2 mph 37 % 0.0 in
19:37 22.7 °F 7.3 °F 1015.8 in SW 14.8 mph 14.8 mph 37 % 0.0 in
19:42 22.5 °F 7.1 °F 1015.8 in SW 16.7 mph 16.7 mph 37 % 0.0 in
19:47 22.3 °F 7.3 °F 1015.8 in SSW 11.1 mph 11.1 mph 38 % 0.0 in
19:52 22.1 °F 7.1 °F 1015.8 in SW 24.1 mph 24.1 mph 38 % 0.0 in
19:57 22.0 °F 7.4 °F 1015.8 in SW 14.8 mph 14.8 mph 39 % 0.0 in
20:02 21.8 °F 7.2 °F 1015.8 in SSW 20.6 mph 20.6 mph 39 % 0.0 in
20:07 21.5 °F 7.3 °F 1015.8 in South 16.7 mph 16.7 mph 40 % 0.0 in
20:12 21.3 °F 7.2 °F 1015.8 in South 20.4 mph 20.4 mph 40 % 0.0 in
20:17 21.1 °F 7.3 °F 1015.8 in SW 18.5 mph 18.5 mph 41 % 0.0 in
20:22 20.9 °F 7.2 °F 1015.8 in SW 14.8 mph 14.8 mph 41 % 0.0 in
20:27 20.8 °F 7.4 °F 1015.8 in SW 9.3 mph 9.3 mph 42 % 0.0 in
20:32 20.5 °F 7.2 °F 1015.8 in SW 13.0 mph 13.0 mph 42 % 0.0 in
20:37 20.4 °F 7.4 °F 1015.8 in South 16.7 mph 16.7 mph 43 % 0.0 in
20:42 20.2 °F 7.2 °F 1016.8 in SW 11.9 mph 11.9 mph 43 % 0.0 in
20:47 20.1 °F 7.4 °F 1016.8 in WSW 13.7 mph 13.7 mph 44 % 0.0 in
20:52 19.9 °F 7.3 °F 1016.8 in SW 11.1 mph 11.1 mph 44 % 0.0 in
20:57 19.8 °F 7.2 °F 1017.8 in SW 14.8 mph 14.8 mph 44 % 0.0 in
21:02 19.7 °F 7.4 °F 1017.8 in SW 10.0 mph 10.0 mph 45 % 0.0 in
21:07 19.5 °F 7.2 °F 1017.8 in SW 14.8 mph 14.8 mph 45 % 0.0 in
21:12 19.4 °F 7.5 °F 1017.8 in SW 9.3 mph 9.3 mph 46 % 0.0 in
21:17 19.2 °F 7.3 °F 1017.8 in SSW 11.9 mph 11.9 mph 46 % 0.0 in
21:22 19.1 °F 7.5 °F 1017.8 in SW 11.1 mph 11.1 mph 47 % 0.0 in
21:27 19.0 °F 7.4 °F 1017.8 in SW 7.4 mph 7.4 mph 47 % 0.0 in
21:32 19.0 °F 7.4 °F 1017.8 in WSW 9.3 mph 9.3 mph 47 % 0.0 in
21:37 18.8 °F 7.8 °F 1017.8 in SW 7.4 mph 7.4 mph 49 % 0.0 in
21:42 18.7 °F 7.8 °F 1017.8 in SW 9.0 mph 9.0 mph 49 % 0.0 in
21:47 18.6 °F 7.7 °F 1017.8 in SW 9.3 mph 9.3 mph 49 % 0.0 in
21:52 18.5 °F 7.6 °F 1017.8 in SSW 7.4 mph 7.4 mph 49 % 0.0 in
21:57 18.4 °F 7.5 °F 1017.8 in SW 7.4 mph 7.4 mph 49 % 0.0 in
22:02 18.4 °F 7.5 °F 1017.8 in SW 7.4 mph 7.4 mph 49 % 0.0 in
22:07 18.3 °F 7.7 °F 1017.8 in SW 3.9 mph 3.9 mph 50 % 0.0 in
22:12 18.2 °F 7.6 °F 1017.8 in SW 4.2 mph 4.2 mph 50 % 0.0 in
22:17 18.0 °F 7.4 °F 1017.8 in SW 5.6 mph 5.6 mph 50 % 0.0 in
22:22 18.0 °F 7.4 °F 1017.8 in WSW 3.9 mph 3.9 mph 50 % 0.0 in
22:27 17.9 °F 7.3 °F 1017.8 in SW 5.6 mph 5.6 mph 50 % 0.0 in
22:32 17.8 °F 7.2 °F 1017.8 in WSW 5.8 mph 5.8 mph 50 % 0.0 in
22:37 17.8 °F 7.2 °F 1017.8 in WSW 5.6 mph 5.6 mph 50 % 0.0 in
22:42 17.6 °F 7.3 °F 1017.8 in WSW 6.4 mph 6.4 mph 51 % 0.0 in
22:47 17.5 °F 7.2 °F 1017.8 in SSW 5.6 mph 5.6 mph 51 % 0.0 in
22:52 17.5 °F 7.2 °F 1017.8 in South 5.6 mph 5.6 mph 51 % 0.0 in
22:57 17.3 °F 7.1 °F 1018.8 in SW 6.4 mph 6.4 mph 51 % 0.0 in
23:02 17.3 °F 7.3 °F 1018.8 in SW 5.6 mph 5.6 mph 52 % 0.0 in
23:07 17.4 °F 7.4 °F 1018.8 in SW 5.3 mph 5.3 mph 52 % 0.0 in
23:12 17.4 °F 7.4 °F 1018.8 in SSW 5.6 mph 5.6 mph 52 % 0.0 in
23:17 17.3 °F 7.3 °F 1018.8 in SW 5.6 mph 5.6 mph 52 % 0.0 in
23:22 17.3 °F 7.3 °F 1018.8 in SW 6.4 mph 6.4 mph 52 % 0.0 in
23:27 17.3 °F 7.6 °F 1018.8 in SW 5.6 mph 5.6 mph 53 % 0.0 in
23:32 17.1 °F 7.4 °F 1018.8 in WSW 5.6 mph 5.6 mph 53 % 0.0 in
23:37 17.2 °F 7.6 °F 1018.8 in SW 7.4 mph 7.4 mph 53 % 0.0 in
23:42 17.2 °F 7.6 °F 1018.8 in WSW 5.6 mph 5.6 mph 53 % 0.0 in
23:47 17.2 °F 7.6 °F 1018.8 in WSW 4.7 mph 4.7 mph 53 % 0.0 in
23:52 17.2 °F 7.6 °F 1018.8 in West 3.7 mph 3.7 mph 53 % 0.0 in
23:57 17.2 °F 7.6 °F 1018.8 in WSW 4.2 mph 4.2 mph 53 % 0.0 in
Meteo Sesrovires
Elogis d' Weather Underground - 2 mb

Guio original per  Jim McMurry - jmcmurry@mwt.net Adaptat per a la plantilla per  Wim van der Kuil - Leuven-Template.eu

Trobareu la nostra informacio del temps tambe a:

Weather Underground

AWEKAS